sensor_id;sensor_type;location;lat;lon;timestamp;pressure;altitude;pressure_sealevel;temperature;humidity
10732;BME280;5417;42.686;23.244;2023-04-06T00:01:12;94077.69;;;2.64;61.05
10732;BME280;5417;42.686;23.244;2023-04-06T00:13:27;94056.00;;;2.83;60.29
10732;BME280;5417;42.686;23.244;2023-04-06T00:16:19;94055.56;;;2.91;60.14
10732;BME280;5417;42.686;23.244;2023-04-06T00:28:28;94042.72;;;2.91;60.26
10732;BME280;5417;42.686;23.244;2023-04-06T00:31:20;94040.06;;;2.93;59.79
10732;BME280;5417;42.686;23.244;2023-04-06T00:33:49;94034.66;;;2.97;59.87
10732;BME280;5417;42.686;23.244;2023-04-06T00:43:04;94032.63;;;3.02;59.91
10732;BME280;5417;42.686;23.244;2023-04-06T00:52:29;94024.00;;;3.03;58.85
10732;BME280;5417;42.686;23.244;2023-04-06T00:58:03;94025.81;;;2.87;60.04
10732;BME280;5417;42.686;23.244;2023-04-06T01:00:35;94016.19;;;2.91;59.72
10732;BME280;5417;42.686;23.244;2023-04-06T01:09:42;94022.97;;;2.92;60.36
10732;BME280;5417;42.686;23.244;2023-04-06T01:13:06;94015.56;;;3.01;60.79
10732;BME280;5417;42.686;23.244;2023-04-06T01:29:31;94005.44;;;2.98;59.90
10732;BME280;5417;42.686;23.244;2023-04-06T01:31:58;94007.56;;;2.92;60.84
10732;BME280;5417;42.686;23.244;2023-04-06T01:34:28;94008.38;;;2.92;61.63
10732;BME280;5417;42.686;23.244;2023-04-06T01:36:55;94001.44;;;3.08;59.97
10732;BME280;5417;42.686;23.244;2023-04-06T01:39:48;93998.66;;;3.11;60.60
10732;BME280;5417;42.686;23.244;2023-04-06T01:42:38;93997.94;;;3.09;60.15
10732;BME280;5417;42.686;23.244;2023-04-06T01:45:58;93999.84;;;2.92;60.80
10732;BME280;5417;42.686;23.244;2023-04-06T01:48:51;93994.78;;;2.90;59.88
10732;BME280;5417;42.686;23.244;2023-04-06T01:51:20;93994.53;;;2.95;60.93
10732;BME280;5417;42.686;23.244;2023-04-06T01:53:47;93987.63;;;2.95;61.36
10732;BME280;5417;42.686;23.244;2023-04-06T01:56:14;93992.50;;;3.00;61.35
10732;BME280;5417;42.686;23.244;2023-04-06T01:58:41;93988.66;;;3.07;60.62
10732;BME280;5417;42.686;23.244;2023-04-06T02:04:26;93983.31;;;2.96;60.68
10732;BME280;5417;42.686;23.244;2023-04-06T02:07:47;93980.84;;;2.94;60.70
10732;BME280;5417;42.686;23.244;2023-04-06T02:11:05;93981.38;;;2.71;61.10
10732;BME280;5417;42.686;23.244;2023-04-06T02:46:36;93990.44;;;3.21;61.13
10732;BME280;5417;42.686;23.244;2023-04-06T02:49:03;93981.16;;;3.18;60.13
10732;BME280;5417;42.686;23.244;2023-04-06T02:51:30;93982.72;;;3.21;60.43
10732;BME280;5417;42.686;23.244;2023-04-06T02:53:58;93985.28;;;3.35;60.39
10732;BME280;5417;42.686;23.244;2023-04-06T02:56:25;93982.44;;;3.25;59.95
10732;BME280;5417;42.686;23.244;2023-04-06T02:58:52;93985.47;;;3.32;59.53
10732;BME280;5417;42.686;23.244;2023-04-06T03:01:19;93986.31;;;3.32;58.74
10732;BME280;5417;42.686;23.244;2023-04-06T03:03:47;93984.56;;;3.19;59.60
10732;BME280;5417;42.686;23.244;2023-04-06T03:06:14;93983.66;;;3.20;59.88
10732;BME280;5417;42.686;23.244;2023-04-06T03:08:41;93976.22;;;3.15;59.94
10732;BME280;5417;42.686;23.244;2023-04-06T03:11:08;93983.19;;;3.13;60.79
10732;BME280;5417;42.686;23.244;2023-04-06T03:13:36;93979.31;;;3.20;60.07
10732;BME280;5417;42.686;23.244;2023-04-06T03:16:04;93978.03;;;3.27;60.12
10732;BME280;5417;42.686;23.244;2023-04-06T03:18:32;93979.31;;;3.20;60.02
10732;BME280;5417;42.686;23.244;2023-04-06T03:21:00;93972.34;;;3.22;59.50
10732;BME280;5417;42.686;23.244;2023-04-06T03:23:27;93979.78;;;3.27;60.10
10732;BME280;5417;42.686;23.244;2023-04-06T03:25:54;93977.03;;;3.30;59.38
10732;BME280;5417;42.686;23.244;2023-04-06T03:28:21;93976.38;;;3.40;59.03
10732;BME280;5417;42.686;23.244;2023-04-06T03:30:49;93972.25;;;3.38;59.15
10732;BME280;5417;42.686;23.244;2023-04-06T03:33:16;93974.81;;;3.38;58.75
10732;BME280;5417;42.686;23.244;2023-04-06T03:35:43;93973.06;;;3.38;59.16
10732;BME280;5417;42.686;23.244;2023-04-06T03:38:11;93967.03;;;3.25;59.04
10732;BME280;5417;42.686;23.244;2023-04-06T03:40:38;93975.94;;;3.20;59.07
10732;BME280;5417;42.686;23.244;2023-04-06T03:43:05;93977.03;;;3.15;59.34
10732;BME280;5417;42.686;23.244;2023-04-06T03:45:32;93973.78;;;3.12;60.29
10732;BME280;5417;42.686;23.244;2023-04-06T03:48:00;93970.88;;;3.18;59.65
10732;BME280;5417;42.686;23.244;2023-04-06T03:50:27;93969.31;;;3.15;59.80
10732;BME280;5417;42.686;23.244;2023-04-06T03:52:53;93972.53;;;3.19;59.96
10732;BME280;5417;42.686;23.244;2023-04-06T03:55:22;93960.50;;;3.20;60.11
10732;BME280;5417;42.686;23.244;2023-04-06T03:57:49;93971.16;;;3.28;59.67
10732;BME280;5417;42.686;23.244;2023-04-06T04:00:16;93972.34;;;3.36;59.54
10732;BME280;5417;42.686;23.244;2023-04-06T04:02:43;93969.59;;;3.39;59.84
10732;BME280;5417;42.686;23.244;2023-04-06T04:05:10;93962.34;;;3.32;59.87
10732;BME280;5417;42.686;23.244;2023-04-06T04:07:37;93970.13;;;3.30;59.43
10732;BME280;5417;42.686;23.244;2023-04-06T04:10:04;93970.78;;;3.34;58.89
10732;BME280;5417;42.686;23.244;2023-04-06T04:12:32;93977.22;;;3.41;58.70
10732;BME280;5417;42.686;23.244;2023-04-06T04:14:59;93981.25;;;3.31;59.15
10732;BME280;5417;42.686;23.244;2023-04-06T04:18:29;93971.72;;;3.19;58.65
10732;BME280;5417;42.686;23.244;2023-04-06T04:20:31;93963.78;;;3.07;58.87
10732;BME280;5417;42.686;23.244;2023-04-06T04:26:25;93971.72;;;3.19;59.61
10732;BME280;5417;42.686;23.244;2023-04-06T04:29:10;93975.56;;;3.26;59.64
10732;BME280;5417;42.686;23.244;2023-04-06T04:32:28;93970.88;;;3.32;59.66
10732;BME280;5417;42.686;23.244;2023-04-06T04:38:24;93974.28;;;3.33;59.47
10732;BME280;5417;42.686;23.244;2023-04-06T04:44:30;93975.38;;;3.29;60.48
10732;BME280;5417;42.686;23.244;2023-04-06T04:47:22;93982.91;;;3.32;60.21
10732;BME280;5417;42.686;23.244;2023-04-06T05:14:57;93971.63;;;3.20;62.03
10732;BME280;5417;42.686;23.244;2023-04-06T05:23:44;93970.03;;;3.46;60.65
10732;BME280;5417;42.686;23.244;2023-04-06T05:26:11;93976.94;;;3.45;59.88
10732;BME280;5417;42.686;23.244;2023-04-06T05:29:02;93968.00;;;3.51;60.50
10732;BME280;5417;42.686;23.244;2023-04-06T05:31:49;93964.13;;;3.58;60.46
10732;BME280;5417;42.686;23.244;2023-04-06T05:34:17;93965.88;;;3.72;61.30
10732;BME280;5417;42.686;23.244;2023-04-06T05:36:44;93965.25;;;3.68;60.89
10732;BME280;5417;42.686;23.244;2023-04-06T05:39:11;93958.06;;;3.73;60.65
10732;BME280;5417;42.686;23.244;2023-04-06T05:41:50;93969.09;;;3.61;59.76
10732;BME280;5417;42.686;23.244;2023-04-06T05:44:19;93963.34;;;3.43;61.06
10732;BME280;5417;42.686;23.244;2023-04-06T05:46:46;93959.66;;;3.33;62.44
10732;BME280;5417;42.686;23.244;2023-04-06T05:49:15;93968.66;;;3.26;62.26
10732;BME280;5417;42.686;23.244;2023-04-06T05:51:44;93961.25;;;3.22;62.98
10732;BME280;5417;42.686;23.244;2023-04-06T05:54:11;93960.97;;;3.26;62.68
10732;BME280;5417;42.686;23.244;2023-04-06T05:56:37;93961.03;;;3.39;63.45
10732;BME280;5417;42.686;23.244;2023-04-06T05:59:05;93963.03;;;3.48;62.62
10732;BME280;5417;42.686;23.244;2023-04-06T06:01:32;93951.56;;;3.54;63.36
10732;BME280;5417;42.686;23.244;2023-04-06T06:04:00;93957.72;;;3.65;62.22
10732;BME280;5417;42.686;23.244;2023-04-06T06:06:31;93950.00;;;3.65;62.50
10732;BME280;5417;42.686;23.244;2023-04-06T06:09:04;93950.44;;;3.72;63.54
10732;BME280;5417;42.686;23.244;2023-04-06T06:11:30;93948.03;;;3.83;62.45
10732;BME280;5417;42.686;23.244;2023-04-06T06:13:58;93943.91;;;3.80;62.04
10732;BME280;5417;42.686;23.244;2023-04-06T06:16:25;93951.44;;;3.84;62.31
10732;BME280;5417;42.686;23.244;2023-04-06T06:18:52;93947.72;;;3.88;62.42
10732;BME280;5417;42.686;23.244;2023-04-06T06:21:19;93951.38;;;3.71;62.57
10732;BME280;5417;42.686;23.244;2023-04-06T06:23:50;93958.06;;;3.59;62.81
10732;BME280;5417;42.686;23.244;2023-04-06T06:26:19;93951.19;;;3.60;62.25
10732;BME280;5417;42.686;23.244;2023-04-06T06:28:47;93948.19;;;3.39;63.26
10732;BME280;5417;42.686;23.244;2023-04-06T06:31:14;93952.56;;;3.51;63.34
10732;BME280;5417;42.686;23.244;2023-04-06T06:33:41;93944.47;;;3.71;62.85
10732;BME280;5417;42.686;23.244;2023-04-06T06:36:08;93950.53;;;3.56;63.34
10732;BME280;5417;42.686;23.244;2023-04-06T06:38:35;93936.13;;;3.68;62.31
10732;BME280;5417;42.686;23.244;2023-04-06T06:41:05;93951.00;;;3.48;62.99
10732;BME280;5417;42.686;23.244;2023-04-06T06:43:32;93953.94;;;3.71;63.02
10732;BME280;5417;42.686;23.244;2023-04-06T06:45:59;93946.84;;;3.74;62.70
10732;BME280;5417;42.686;23.244;2023-04-06T06:48:26;93957.81;;;3.35;62.96
10732;BME280;5417;42.686;23.244;2023-04-06T06:50:54;93957.91;;;3.34;62.87
10732;BME280;5417;42.686;23.244;2023-04-06T06:53:21;93958.13;;;3.16;64.54
10732;BME280;5417;42.686;23.244;2023-04-06T06:55:48;93954.59;;;3.03;63.77
10732;BME280;5417;42.686;23.244;2023-04-06T06:58:18;93955.53;;;3.31;64.12
10732;BME280;5417;42.686;23.244;2023-04-06T07:00:45;93954.84;;;3.56;63.74
10732;BME280;5417;42.686;23.244;2023-04-06T07:03:12;93953.66;;;3.75;63.73
10732;BME280;5417;42.686;23.244;2023-04-06T07:05:45;93944.53;;;3.84;62.19
10732;BME280;5417;42.686;23.244;2023-04-06T07:08:15;93953.13;;;3.97;61.83
10732;BME280;5417;42.686;23.244;2023-04-06T07:10:42;93958.72;;;4.04;60.71
10732;BME280;5417;42.686;23.244;2023-04-06T07:13:09;93956.81;;;3.93;60.63
10732;BME280;5417;42.686;23.244;2023-04-06T07:15:38;93949.97;;;3.79;61.34
10732;BME280;5417;42.686;23.244;2023-04-06T07:18:05;93952.00;;;4.01;61.90
10732;BME280;5417;42.686;23.244;2023-04-06T07:20:32;93952.50;;;4.21;61.23
10732;BME280;5417;42.686;23.244;2023-04-06T07:22:59;93945.84;;;4.31;59.69
10732;BME280;5417;42.686;23.244;2023-04-06T07:25:28;93961.63;;;4.12;59.94
10732;BME280;5417;42.686;23.244;2023-04-06T07:27:56;93953.75;;;4.01;60.42
10732;BME280;5417;42.686;23.244;2023-04-06T07:30:23;93960.03;;;3.97;60.89
10732;BME280;5417;42.686;23.244;2023-04-06T07:32:53;93960.09;;;3.54;62.23
10732;BME280;5417;42.686;23.244;2023-04-06T07:35:21;93964.78;;;3.62;62.29
10732;BME280;5417;42.686;23.244;2023-04-06T07:37:48;93948.13;;;3.82;62.08
10732;BME280;5417;42.686;23.244;2023-04-06T07:40:15;93948.00;;;3.42;63.53
10732;BME280;5417;42.686;23.244;2023-04-06T07:42:42;93948.97;;;3.54;64.67
10732;BME280;5417;42.686;23.244;2023-04-06T07:45:09;93952.22;;;3.29;64.21
10732;BME280;5417;42.686;23.244;2023-04-06T07:47:36;93948.38;;;3.22;65.54
10732;BME280;5417;42.686;23.244;2023-04-06T07:50:06;93953.41;;;3.09;65.76
10732;BME280;5417;42.686;23.244;2023-04-06T07:52:33;93954.22;;;2.95;66.74
10732;BME280;5417;42.686;23.244;2023-04-06T07:55:00;93956.09;;;3.22;66.38
10732;BME280;5417;42.686;23.244;2023-04-06T07:57:27;93944.53;;;3.14;67.41
10732;BME280;5417;42.686;23.244;2023-04-06T07:59:54;93950.41;;;3.16;66.98
10732;BME280;5417;42.686;23.244;2023-04-06T08:02:21;93948.81;;;3.00;66.34
10732;BME280;5417;42.686;23.244;2023-04-06T08:04:48;93951.84;;;3.06;66.90
10732;BME280;5417;42.686;23.244;2023-04-06T08:07:16;93938.81;;;2.95;66.29
10732;BME280;5417;42.686;23.244;2023-04-06T08:09:43;93951.47;;;2.98;67.36
10732;BME280;5417;42.686;23.244;2023-04-06T08:12:10;93951.75;;;3.08;65.56
10732;BME280;5417;42.686;23.244;2023-04-06T08:14:37;93954.63;;;3.17;65.64
10732;BME280;5417;42.686;23.244;2023-04-06T08:17:04;93956.06;;;3.50;65.75
10732;BME280;5417;42.686;23.244;2023-04-06T08:19:31;93946.22;;;3.98;65.66
10732;BME280;5417;42.686;23.244;2023-04-06T08:21:58;93946.53;;;4.20;64.61
10732;BME280;5417;42.686;23.244;2023-04-06T08:24:27;93950.94;;;4.45;61.74
10732;BME280;5417;42.686;23.244;2023-04-06T08:26:54;93951.00;;;4.70;62.89
10732;BME280;5417;42.686;23.244;2023-04-06T08:29:21;93948.44;;;4.83;59.14
10732;BME280;5417;42.686;23.244;2023-04-06T08:31:48;93955.78;;;4.50;57.85
10732;BME280;5417;42.686;23.244;2023-04-06T08:34:15;93951.66;;;4.47;59.46
10732;BME280;5417;42.686;23.244;2023-04-06T08:36:42;93953.59;;;4.43;59.46
10732;BME280;5417;42.686;23.244;2023-04-06T08:39:09;93954.84;;;4.51;58.69
10732;BME280;5417;42.686;23.244;2023-04-06T08:41:37;93938.34;;;4.40;59.28
10732;BME280;5417;42.686;23.244;2023-04-06T08:44:05;93954.53;;;4.42;59.97
10732;BME280;5417;42.686;23.244;2023-04-06T08:46:32;93951.97;;;4.55;59.04
10732;BME280;5417;42.686;23.244;2023-04-06T08:49:00;93941.56;;;4.57;58.94
10732;BME280;5417;42.686;23.244;2023-04-06T08:51:28;93950.19;;;4.43;60.68
10732;BME280;5417;42.686;23.244;2023-04-06T08:53:57;93952.50;;;4.60;60.51
10732;BME280;5417;42.686;23.244;2023-04-06T08:56:26;93951.53;;;4.75;58.53
10732;BME280;5417;42.686;23.244;2023-04-06T08:58:55;93951.22;;;4.40;58.06
10732;BME280;5417;42.686;23.244;2023-04-06T09:01:25;93939.88;;;4.70;59.66
10732;BME280;5417;42.686;23.244;2023-04-06T09:03:55;93946.16;;;4.91;56.89
10732;BME280;5417;42.686;23.244;2023-04-06T09:06:23;93945.94;;;4.29;58.74
10732;BME280;5417;42.686;23.244;2023-04-06T09:08:50;93946.06;;;4.40;59.87
10732;BME280;5417;42.686;23.244;2023-04-06T09:11:17;93927.00;;;4.30;59.68
10732;BME280;5417;42.686;23.244;2023-04-06T09:13:45;93949.78;;;4.09;60.97
10732;BME280;5417;42.686;23.244;2023-04-06T09:16:14;93938.81;;;4.20;60.79
10732;BME280;5417;42.686;23.244;2023-04-06T09:18:42;93935.03;;;4.38;61.62
10732;BME280;5417;42.686;23.244;2023-04-06T09:21:09;93935.81;;;4.66;59.15
10732;BME280;5417;42.686;23.244;2023-04-06T09:23:37;93947.91;;;4.78;59.30
10732;BME280;5417;42.686;23.244;2023-04-06T09:26:09;93936.38;;;5.09;57.70
10732;BME280;5417;42.686;23.244;2023-04-06T09:28:46;93940.41;;;5.26;56.72
10732;BME280;5417;42.686;23.244;2023-04-06T09:31:16;93938.41;;;5.42;57.35
10732;BME280;5417;42.686;23.244;2023-04-06T09:33:44;93939.44;;;5.52;56.38
10732;BME280;5417;42.686;23.244;2023-04-06T09:36:12;93938.00;;;5.48;55.67
10732;BME280;5417;42.686;23.244;2023-04-06T09:38:51;93938.59;;;5.52;56.61
10732;BME280;5417;42.686;23.244;2023-04-06T09:41:23;93939.31;;;5.54;55.59
10732;BME280;5417;42.686;23.244;2023-04-06T09:43:51;93934.09;;;5.43;54.51
10732;BME280;5417;42.686;23.244;2023-04-06T09:46:21;93932.69;;;5.62;56.72
10732;BME280;5417;42.686;23.244;2023-04-06T09:48:49;93922.94;;;5.91;55.53
10732;BME280;5417;42.686;23.244;2023-04-06T09:51:18;93931.69;;;6.01;53.88
10732;BME280;5417;42.686;23.244;2023-04-06T09:53:52;93925.31;;;6.18;52.96
10732;BME280;5417;42.686;23.244;2023-04-06T09:56:25;93918.72;;;6.14;53.04
10732;BME280;5417;42.686;23.244;2023-04-06T09:58:57;93920.59;;;6.36;52.88
10732;BME280;5417;42.686;23.244;2023-04-06T10:01:30;93924.16;;;6.22;52.55
10732;BME280;5417;42.686;23.244;2023-04-06T10:04:08;93925.81;;;6.23;52.62
10732;BME280;5417;42.686;23.244;2023-04-06T10:06:38;93917.34;;;6.45;53.53
10732;BME280;5417;42.686;23.244;2023-04-06T10:09:07;93924.09;;;6.59;51.74
10732;BME280;5417;42.686;23.244;2023-04-06T10:11:35;93922.44;;;7.04;52.75
10732;BME280;5417;42.686;23.244;2023-04-06T10:14:02;93914.72;;;7.38;53.65
10732;BME280;5417;42.686;23.244;2023-04-06T10:16:40;93915.13;;;6.87;51.22
10732;BME280;5417;42.686;23.244;2023-04-06T10:19:13;93917.28;;;6.69;54.63
10732;BME280;5417;42.686;23.244;2023-04-06T10:21:45;93913.19;;;6.31;51.45
10732;BME280;5417;42.686;23.244;2023-04-06T10:24:15;93920.31;;;6.52;53.70
10732;BME280;5417;42.686;23.244;2023-04-06T10:26:42;93899.91;;;6.71;53.16
10732;BME280;5417;42.686;23.244;2023-04-06T10:29:10;93900.00;;;6.70;51.15
10732;BME280;5417;42.686;23.244;2023-04-06T10:31:42;93901.94;;;6.79;52.53
10732;BME280;5417;42.686;23.244;2023-04-06T10:34:13;93894.91;;;6.22;52.85
10732;BME280;5417;42.686;23.244;2023-04-06T10:36:43;93906.34;;;5.33;53.85
10732;BME280;5417;42.686;23.244;2023-04-06T10:39:10;93896.72;;;5.35;54.91
10732;BME280;5417;42.686;23.244;2023-04-06T10:41:41;93888.06;;;5.36;55.56
10732;BME280;5417;42.686;23.244;2023-04-06T10:44:17;93893.44;;;5.08;55.48
10732;BME280;5417;42.686;23.244;2023-04-06T10:46:54;93890.16;;;5.06;55.90
10732;BME280;5417;42.686;23.244;2023-04-06T10:49:22;93899.34;;;4.97;57.11
10732;BME280;5417;42.686;23.244;2023-04-06T10:51:52;93897.78;;;5.33;58.22
10732;BME280;5417;42.686;23.244;2023-04-06T10:54:21;93902.75;;;5.60;55.45
10732;BME280;5417;42.686;23.244;2023-04-06T10:56:48;93892.13;;;6.01;55.53
10732;BME280;5417;42.686;23.244;2023-04-06T10:59:19;93888.09;;;5.24;54.04
10732;BME280;5417;42.686;23.244;2023-04-06T11:01:47;93891.06;;;5.18;56.28
10732;BME280;5417;42.686;23.244;2023-04-06T11:04:17;93885.66;;;5.46;55.64
10732;BME280;5417;42.686;23.244;2023-04-06T11:06:47;93884.63;;;5.49;53.90
10732;BME280;5417;42.686;23.244;2023-04-06T11:09:23;93881.72;;;5.53;55.18
10732;BME280;5417;42.686;23.244;2023-04-06T11:11:56;93886.59;;;5.45;55.21
10732;BME280;5417;42.686;23.244;2023-04-06T11:14:23;93871.97;;;5.33;54.40
10732;BME280;5417;42.686;23.244;2023-04-06T11:16:52;93871.13;;;5.32;55.43
10732;BME280;5417;42.686;23.244;2023-04-06T11:19:20;93864.00;;;5.36;55.39
10732;BME280;5417;42.686;23.244;2023-04-06T11:21:48;93876.72;;;5.14;54.09
10732;BME280;5417;42.686;23.244;2023-04-06T11:24:17;93879.63;;;5.22;55.60
10732;BME280;5417;42.686;23.244;2023-04-06T11:26:46;93868.28;;;5.24;55.21
10732;BME280;5417;42.686;23.244;2023-04-06T11:29:15;93869.69;;;5.16;54.53
10732;BME280;5417;42.686;23.244;2023-04-06T11:31:46;93870.53;;;5.16;56.35
10732;BME280;5417;42.686;23.244;2023-04-06T11:34:16;93871.31;;;5.42;56.03
10732;BME280;5417;42.686;23.244;2023-04-06T11:36:46;93868.13;;;5.38;55.39
10732;BME280;5417;42.686;23.244;2023-04-06T11:39:18;93845.69;;;5.52;55.73
10732;BME280;5417;42.686;23.244;2023-04-06T11:41:47;93858.22;;;5.69;54.78
10732;BME280;5417;42.686;23.244;2023-04-06T11:44:15;93858.16;;;5.94;54.42
10732;BME280;5417;42.686;23.244;2023-04-06T11:46:51;93844.75;;;5.89;53.05
10732;BME280;5417;42.686;23.244;2023-04-06T11:49:19;93853.72;;;5.60;53.92
10732;BME280;5417;42.686;23.244;2023-04-06T11:51:47;93845.50;;;5.42;54.95
10732;BME280;5417;42.686;23.244;2023-04-06T11:54:16;93849.91;;;5.03;54.78
10732;BME280;5417;42.686;23.244;2023-04-06T11:56:46;93844.44;;;5.21;56.14
10732;BME280;5417;42.686;23.244;2023-04-06T11:59:18;93840.19;;;5.20;55.20
10732;BME280;5417;42.686;23.244;2023-04-06T12:01:45;93841.66;;;5.11;54.59
10732;BME280;5417;42.686;23.244;2023-04-06T12:04:12;93848.47;;;5.12;54.42
10732;BME280;5417;42.686;23.244;2023-04-06T12:06:40;93847.03;;;5.21;54.61
10732;BME280;5417;42.686;23.244;2023-04-06T12:09:08;93843.81;;;5.17;54.94
10732;BME280;5417;42.686;23.244;2023-04-06T12:11:35;93847.31;;;5.16;55.97
10732;BME280;5417;42.686;23.244;2023-04-06T12:14:04;93847.25;;;4.92;56.42
10732;BME280;5417;42.686;23.244;2023-04-06T12:16:32;93832.28;;;4.97;56.21
10732;BME280;5417;42.686;23.244;2023-04-06T12:19:07;93845.78;;;5.01;55.85
10732;BME280;5417;42.686;23.244;2023-04-06T12:21:34;93845.38;;;5.07;56.01
10732;BME280;5417;42.686;23.244;2023-04-06T12:24:03;93843.38;;;5.36;57.18
10732;BME280;5417;42.686;23.244;2023-04-06T12:26:31;93847.72;;;5.59;56.74
10732;BME280;5417;42.686;23.244;2023-04-06T12:28:59;93844.13;;;5.86;55.19
10732;BME280;5417;42.686;23.244;2023-04-06T12:31:32;93839.56;;;6.13;54.80
10732;BME280;5417;42.686;23.244;2023-04-06T12:34:00;93845.06;;;6.32;52.18
10732;BME280;5417;42.686;23.244;2023-04-06T12:36:28;93843.78;;;6.49;50.86
10732;BME280;5417;42.686;23.244;2023-04-06T12:38:56;93836.84;;;6.39;51.75
10732;BME280;5417;42.686;23.244;2023-04-06T12:41:23;93841.69;;;6.54;53.17
10732;BME280;5417;42.686;23.244;2023-04-06T12:43:51;93834.97;;;6.41;51.48
10732;BME280;5417;42.686;23.244;2023-04-06T12:46:18;93835.09;;;6.39;50.91
10732;BME280;5417;42.686;23.244;2023-04-06T12:48:46;93833.78;;;6.33;50.92
10732;BME280;5417;42.686;23.244;2023-04-06T12:51:13;93831.91;;;6.47;50.93
10732;BME280;5417;42.686;23.244;2023-04-06T12:53:40;93823.81;;;6.40;50.92
10732;BME280;5417;42.686;23.244;2023-04-06T12:56:17;93824.75;;;6.39;50.61
10732;BME280;5417;42.686;23.244;2023-04-06T12:58:44;93824.41;;;6.44;50.09
10732;BME280;5417;42.686;23.244;2023-04-06T13:01:15;93824.88;;;6.49;49.72
10732;BME280;5417;42.686;23.244;2023-04-06T13:03:47;93828.66;;;6.56;49.83
10732;BME280;5417;42.686;23.244;2023-04-06T13:06:14;93825.34;;;6.54;49.67
10732;BME280;5417;42.686;23.244;2023-04-06T13:08:41;93817.72;;;6.63;50.91
10732;BME280;5417;42.686;23.244;2023-04-06T13:11:09;93822.31;;;6.71;49.93
10732;BME280;5417;42.686;23.244;2023-04-06T13:13:37;93811.38;;;6.56;50.66
10732;BME280;5417;42.686;23.244;2023-04-06T13:16:07;93810.25;;;6.25;51.97
10732;BME280;5417;42.686;23.244;2023-04-06T13:18:37;93805.09;;;6.25;49.99
10732;BME280;5417;42.686;23.244;2023-04-06T13:21:18;93805.00;;;6.03;51.71
10732;BME280;5417;42.686;23.244;2023-04-06T13:23:46;93807.59;;;5.79;51.63
10732;BME280;5417;42.686;23.244;2023-04-06T13:26:13;93808.41;;;5.80;52.50
10732;BME280;5417;42.686;23.244;2023-04-06T13:28:42;93795.22;;;5.71;51.41
10732;BME280;5417;42.686;23.244;2023-04-06T13:31:09;93797.47;;;5.52;52.23
10732;BME280;5417;42.686;23.244;2023-04-06T13:33:38;93805.09;;;5.54;52.86
10732;BME280;5417;42.686;23.244;2023-04-06T13:36:06;93809.13;;;5.58;51.51
10732;BME280;5417;42.686;23.244;2023-04-06T13:38:34;93807.25;;;5.60;51.72
10732;BME280;5417;42.686;23.244;2023-04-06T13:41:01;93813.69;;;5.78;51.61
10732;BME280;5417;42.686;23.244;2023-04-06T13:43:28;93810.34;;;5.89;51.42
10732;BME280;5417;42.686;23.244;2023-04-06T13:45:55;93810.75;;;5.95;51.14
10732;BME280;5417;42.686;23.244;2023-04-06T13:48:23;93803.81;;;5.96;50.40
10732;BME280;5417;42.686;23.244;2023-04-06T13:50:52;93810.25;;;5.90;50.80
10732;BME280;5417;42.686;23.244;2023-04-06T13:53:19;93804.94;;;5.68;51.87
10732;BME280;5417;42.686;23.244;2023-04-06T13:55:52;93797.19;;;5.68;51.77
10732;BME280;5417;42.686;23.244;2023-04-06T13:58:19;93805.00;;;5.79;52.66
10732;BME280;5417;42.686;23.244;2023-04-06T14:00:47;93803.00;;;5.95;50.83
10732;BME280;5417;42.686;23.244;2023-04-06T14:03:13;93798.56;;;6.09;50.75
10732;BME280;5417;42.686;23.244;2023-04-06T14:05:40;93797.16;;;6.05;49.78
10732;BME280;5417;42.686;23.244;2023-04-06T14:08:09;93807.84;;;6.11;50.18
10732;BME280;5417;42.686;23.244;2023-04-06T14:10:39;93798.72;;;6.18;50.47
10732;BME280;5417;42.686;23.244;2023-04-06T14:13:15;93806.84;;;6.25;50.88
10732;BME280;5417;42.686;23.244;2023-04-06T14:15:44;93809.47;;;6.36;50.83
10732;BME280;5417;42.686;23.244;2023-04-06T14:18:10;93812.66;;;6.51;49.77
10732;BME280;5417;42.686;23.244;2023-04-06T14:20:43;93817.00;;;6.50;48.91
10732;BME280;5417;42.686;23.244;2023-04-06T14:23:12;93820.88;;;6.56;48.85
10732;BME280;5417;42.686;23.244;2023-04-06T14:25:38;93811.25;;;6.58;49.79
10732;BME280;5417;42.686;23.244;2023-04-06T14:28:05;93809.38;;;6.60;49.17
10732;BME280;5417;42.686;23.244;2023-04-06T14:33:58;93811.50;;;6.55;49.12
10732;BME280;5417;42.686;23.244;2023-04-06T14:36:27;93809.50;;;6.58;48.76
10732;BME280;5417;42.686;23.244;2023-04-06T14:38:56;93803.72;;;6.55;49.56
10732;BME280;5417;42.686;23.244;2023-04-06T14:44:54;93807.03;;;6.57;51.33
10732;BME280;5417;42.686;23.244;2023-04-06T14:47:21;93813.81;;;6.47;47.68
10732;BME280;5417;42.686;23.244;2023-04-06T14:49:53;93808.03;;;5.97;48.22
10732;BME280;5417;42.686;23.244;2023-04-06T14:53:38;93812.25;;;5.50;49.87
10732;BME280;5417;42.686;23.244;2023-04-06T15:02:32;93808.88;;;5.00;52.13
10732;BME280;5417;42.686;23.244;2023-04-06T15:11:33;93820.28;;;5.09;53.44
10732;BME280;5417;42.686;23.244;2023-04-06T15:14:08;93819.38;;;5.23;53.35
10732;BME280;5417;42.686;23.244;2023-04-06T15:16:48;93826.03;;;5.38;52.87
10732;BME280;5417;42.686;23.244;2023-04-06T15:19:23;93831.91;;;5.40;52.17
10732;BME280;5417;42.686;23.244;2023-04-06T15:21:53;93834.97;;;5.45;52.97
10732;BME280;5417;42.686;23.244;2023-04-06T15:24:20;93833.50;;;5.54;53.56
10732;BME280;5417;42.686;23.244;2023-04-06T15:26:47;93836.25;;;5.63;53.51
10732;BME280;5417;42.686;23.244;2023-04-06T15:29:14;93838.91;;;5.75;53.47
10732;BME280;5417;42.686;23.244;2023-04-06T15:31:42;93842.72;;;5.69;53.06
10732;BME280;5417;42.686;23.244;2023-04-06T15:34:09;93840.31;;;5.55;54.50
10732;BME280;5417;42.686;23.244;2023-04-06T15:36:38;93847.88;;;5.45;54.82
10732;BME280;5417;42.686;23.244;2023-04-06T15:39:06;93857.06;;;5.49;54.31
10732;BME280;5417;42.686;23.244;2023-04-06T15:41:34;93852.06;;;5.59;54.67
10732;BME280;5417;42.686;23.244;2023-04-06T15:44:01;93855.06;;;5.53;54.79
10732;BME280;5417;42.686;23.244;2023-04-06T15:46:29;93855.63;;;5.45;55.02
10732;BME280;5417;42.686;23.244;2023-04-06T15:48:56;93854.44;;;5.25;55.84
10732;BME280;5417;42.686;23.244;2023-04-06T15:51:23;93856.72;;;5.04;56.10
10732;BME280;5417;42.686;23.244;2023-04-06T15:53:52;93864.06;;;4.60;56.93
10732;BME280;5417;42.686;23.244;2023-04-06T15:56:18;93864.25;;;4.44;58.59
10732;BME280;5417;42.686;23.244;2023-04-06T15:58:45;93862.00;;;4.52;58.71
10732;BME280;5417;42.686;23.244;2023-04-06T16:01:13;93859.50;;;4.38;58.01